sensor_id;sensor_type;location;lat;lon;timestamp;P1;durP1;ratioP1;P2;durP2;ratioP2
22250;SDS011;59348;52.158;5.588;2023-02-21T00:01:47;55.30;;;32.97;;
22250;SDS011;59348;52.158;5.588;2023-02-21T00:04:28;53.38;;;32.25;;
22250;SDS011;59348;52.158;5.588;2023-02-21T00:07:10;51.45;;;32.38;;
22250;SDS011;59348;52.158;5.588;2023-02-21T00:09:56;55.22;;;32.35;;
22250;SDS011;59348;52.158;5.588;2023-02-21T00:12:37;47.35;;;31.30;;
22250;SDS011;59348;52.158;5.588;2023-02-21T00:15:18;52.67;;;34.22;;
22250;SDS011;59348;52.158;5.588;2023-02-21T00:17:59;51.15;;;33.33;;
22250;SDS011;59348;52.158;5.588;2023-02-21T00:20:40;52.50;;;34.35;;
22250;SDS011;59348;52.158;5.588;2023-02-21T00:23:21;54.13;;;32.30;;
22250;SDS011;59348;52.158;5.588;2023-02-21T00:26:04;60.08;;;34.95;;
22250;SDS011;59348;52.158;5.588;2023-02-21T00:28:45;57.90;;;34.65;;
22250;SDS011;59348;52.158;5.588;2023-02-21T00:31:26;57.33;;;33.45;;
22250;SDS011;59348;52.158;5.588;2023-02-21T00:34:07;56.95;;;33.70;;
22250;SDS011;59348;52.158;5.588;2023-02-21T00:36:49;58.03;;;33.83;;
22250;SDS011;59348;52.158;5.588;2023-02-21T00:39:30;55.92;;;32.70;;
22250;SDS011;59348;52.158;5.588;2023-02-21T00:42:12;60.90;;;33.00;;
22250;SDS011;59348;52.158;5.588;2023-02-21T00:44:53;57.35;;;33.40;;
22250;SDS011;59348;52.158;5.588;2023-02-21T00:47:34;52.35;;;31.98;;
22250;SDS011;59348;52.158;5.588;2023-02-21T00:50:16;48.95;;;31.38;;
22250;SDS011;59348;52.158;5.588;2023-02-21T00:52:57;54.75;;;32.97;;
22250;SDS011;59348;52.158;5.588;2023-02-21T00:55:38;56.22;;;33.05;;
22250;SDS011;59348;52.158;5.588;2023-02-21T00:58:21;59.05;;;33.38;;
22250;SDS011;59348;52.158;5.588;2023-02-21T01:01:03;55.67;;;33.83;;
22250;SDS011;59348;52.158;5.588;2023-02-21T01:03:44;57.58;;;33.05;;
22250;SDS011;59348;52.158;5.588;2023-02-21T01:06:25;59.25;;;34.72;;
22250;SDS011;59348;52.158;5.588;2023-02-21T01:09:06;58.78;;;35.05;;
22250;SDS011;59348;52.158;5.588;2023-02-21T01:11:48;59.95;;;33.95;;
22250;SDS011;59348;52.158;5.588;2023-02-21T01:14:30;55.72;;;34.17;;
22250;SDS011;59348;52.158;5.588;2023-02-21T01:17:11;52.83;;;33.78;;
22250;SDS011;59348;52.158;5.588;2023-02-21T01:19:52;56.60;;;34.40;;
22250;SDS011;59348;52.158;5.588;2023-02-21T01:22:34;59.33;;;33.70;;
22250;SDS011;59348;52.158;5.588;2023-02-21T01:25:15;62.08;;;34.58;;
22250;SDS011;59348;52.158;5.588;2023-02-21T01:27:56;62.20;;;33.75;;
22250;SDS011;59348;52.158;5.588;2023-02-21T01:30:39;58.83;;;34.25;;
22250;SDS011;59348;52.158;5.588;2023-02-21T01:33:20;62.95;;;35.17;;
22250;SDS011;59348;52.158;5.588;2023-02-21T01:36:03;60.47;;;34.55;;
22250;SDS011;59348;52.158;5.588;2023-02-21T01:38:44;61.55;;;34.95;;
22250;SDS011;59348;52.158;5.588;2023-02-21T01:41:25;69.40;;;34.88;;
22250;SDS011;59348;52.158;5.588;2023-02-21T01:44:21;62.95;;;35.95;;
22250;SDS011;59348;52.158;5.588;2023-02-21T01:47:09;65.00;;;35.03;;
22250;SDS011;59348;52.158;5.588;2023-02-21T01:49:50;68.72;;;36.08;;
22250;SDS011;59348;52.158;5.588;2023-02-21T01:52:31;62.83;;;36.75;;
22250;SDS011;59348;52.158;5.588;2023-02-21T01:55:13;65.28;;;37.42;;
22250;SDS011;59348;52.158;5.588;2023-02-21T01:57:54;68.35;;;38.50;;
22250;SDS011;59348;52.158;5.588;2023-02-21T02:00:35;66.00;;;37.75;;
22250;SDS011;59348;52.158;5.588;2023-02-21T02:03:18;69.10;;;37.50;;
22250;SDS011;59348;52.158;5.588;2023-02-21T02:06:01;69.97;;;38.15;;
22250;SDS011;59348;52.158;5.588;2023-02-21T02:08:42;71.80;;;38.97;;
22250;SDS011;59348;52.158;5.588;2023-02-21T02:11:34;71.20;;;37.45;;
22250;SDS011;59348;52.158;5.588;2023-02-21T02:14:24;67.85;;;37.55;;
22250;SDS011;59348;52.158;5.588;2023-02-21T02:16:55;66.85;;;38.15;;
22250;SDS011;59348;52.158;5.588;2023-02-21T02:19:37;74.72;;;38.90;;
22250;SDS011;59348;52.158;5.588;2023-02-21T02:22:15;63.90;;;38.08;;
22250;SDS011;59348;52.158;5.588;2023-02-21T02:24:51;66.60;;;37.38;;
22250;SDS011;59348;52.158;5.588;2023-02-21T02:27:28;73.32;;;38.90;;
22250;SDS011;59348;52.158;5.588;2023-02-21T02:30:09;74.22;;;38.88;;
22250;SDS011;59348;52.158;5.588;2023-02-21T02:32:45;71.85;;;39.10;;
22250;SDS011;59348;52.158;5.588;2023-02-21T02:35:19;68.32;;;38.92;;
22250;SDS011;59348;52.158;5.588;2023-02-21T02:37:49;67.78;;;40.03;;
22250;SDS011;59348;52.158;5.588;2023-02-21T02:40:19;71.93;;;40.70;;
22250;SDS011;59348;52.158;5.588;2023-02-21T02:42:54;72.70;;;39.33;;
22250;SDS011;59348;52.158;5.588;2023-02-21T02:45:25;70.80;;;40.65;;
22250;SDS011;59348;52.158;5.588;2023-02-21T02:47:56;70.00;;;39.63;;
22250;SDS011;59348;52.158;5.588;2023-02-21T02:50:26;72.95;;;39.72;;
22250;SDS011;59348;52.158;5.588;2023-02-21T02:52:55;69.13;;;41.42;;
22250;SDS011;59348;52.158;5.588;2023-02-21T02:55:29;71.50;;;41.40;;
22250;SDS011;59348;52.158;5.588;2023-02-21T02:57:59;72.18;;;41.25;;
22250;SDS011;59348;52.158;5.588;2023-02-21T03:00:26;70.90;;;40.20;;
22250;SDS011;59348;52.158;5.588;2023-02-21T03:02:59;70.20;;;39.92;;
22250;SDS011;59348;52.158;5.588;2023-02-21T03:05:36;73.18;;;40.42;;
22250;SDS011;59348;52.158;5.588;2023-02-21T03:08:07;74.45;;;39.28;;
22250;SDS011;59348;52.158;5.588;2023-02-21T03:10:37;67.68;;;39.42;;
22250;SDS011;59348;52.158;5.588;2023-02-21T03:13:09;71.95;;;40.50;;
22250;SDS011;59348;52.158;5.588;2023-02-21T03:15:39;76.43;;;42.90;;
22250;SDS011;59348;52.158;5.588;2023-02-21T03:18:09;79.38;;;41.28;;
22250;SDS011;59348;52.158;5.588;2023-02-21T03:20:41;75.85;;;41.55;;
22250;SDS011;59348;52.158;5.588;2023-02-21T03:23:09;78.97;;;43.20;;
22250;SDS011;59348;52.158;5.588;2023-02-21T03:25:37;81.40;;;45.35;;
22250;SDS011;59348;52.158;5.588;2023-02-21T03:28:05;81.35;;;43.50;;
22250;SDS011;59348;52.158;5.588;2023-02-21T03:30:32;84.40;;;44.38;;
22250;SDS011;59348;52.158;5.588;2023-02-21T03:33:00;84.15;;;45.08;;
22250;SDS011;59348;52.158;5.588;2023-02-21T03:35:28;89.63;;;45.20;;
22250;SDS011;59348;52.158;5.588;2023-02-21T03:37:57;82.78;;;45.28;;
22250;SDS011;59348;52.158;5.588;2023-02-21T03:40:25;86.20;;;45.72;;
22250;SDS011;59348;52.158;5.588;2023-02-21T03:42:53;88.30;;;46.67;;
22250;SDS011;59348;52.158;5.588;2023-02-21T03:45:23;86.03;;;46.60;;
22250;SDS011;59348;52.158;5.588;2023-02-21T03:47:52;88.78;;;46.15;;
22250;SDS011;59348;52.158;5.588;2023-02-21T03:50:20;91.30;;;46.47;;
22250;SDS011;59348;52.158;5.588;2023-02-21T03:52:47;88.32;;;45.22;;
22250;SDS011;59348;52.158;5.588;2023-02-21T03:55:16;95.88;;;47.53;;
22250;SDS011;59348;52.158;5.588;2023-02-21T03:57:43;96.43;;;46.13;;
22250;SDS011;59348;52.158;5.588;2023-02-21T04:00:11;96.05;;;46.90;;
22250;SDS011;59348;52.158;5.588;2023-02-21T04:02:38;90.50;;;47.15;;
22250;SDS011;59348;52.158;5.588;2023-02-21T04:05:06;90.22;;;46.97;;
22250;SDS011;59348;52.158;5.588;2023-02-21T04:07:33;98.68;;;48.28;;
22250;SDS011;59348;52.158;5.588;2023-02-21T04:10:00;97.82;;;49.83;;
22250;SDS011;59348;52.158;5.588;2023-02-21T04:12:29;106.60;;;48.50;;
22250;SDS011;59348;52.158;5.588;2023-02-21T04:14:56;95.57;;;48.10;;
22250;SDS011;59348;52.158;5.588;2023-02-21T04:17:23;103.20;;;48.15;;
22250;SDS011;59348;52.158;5.588;2023-02-21T04:19:51;97.10;;;48.42;;
22250;SDS011;59348;52.158;5.588;2023-02-21T04:22:18;98.30;;;49.58;;
22250;SDS011;59348;52.158;5.588;2023-02-21T04:24:46;100.32;;;48.88;;
22250;SDS011;59348;52.158;5.588;2023-02-21T04:27:14;92.97;;;50.63;;
22250;SDS011;59348;52.158;5.588;2023-02-21T04:29:42;95.95;;;49.05;;
22250;SDS011;59348;52.158;5.588;2023-02-21T04:32:10;99.97;;;48.85;;
22250;SDS011;59348;52.158;5.588;2023-02-21T04:34:37;104.05;;;49.45;;
22250;SDS011;59348;52.158;5.588;2023-02-21T04:37:04;99.22;;;48.70;;
22250;SDS011;59348;52.158;5.588;2023-02-21T04:39:32;108.95;;;51.85;;
22250;SDS011;59348;52.158;5.588;2023-02-21T04:41:59;100.68;;;49.83;;
22250;SDS011;59348;52.158;5.588;2023-02-21T04:44:26;99.55;;;49.97;;
22250;SDS011;59348;52.158;5.588;2023-02-21T04:46:55;105.60;;;50.22;;
22250;SDS011;59348;52.158;5.588;2023-02-21T04:49:22;94.28;;;48.67;;
22250;SDS011;59348;52.158;5.588;2023-02-21T04:51:51;105.57;;;48.80;;
22250;SDS011;59348;52.158;5.588;2023-02-21T04:54:19;95.50;;;47.53;;
22250;SDS011;59348;52.158;5.588;2023-02-21T04:56:46;103.97;;;48.72;;
22250;SDS011;59348;52.158;5.588;2023-02-21T04:59:13;99.60;;;47.83;;
22250;SDS011;59348;52.158;5.588;2023-02-21T05:01:41;94.72;;;48.63;;
22250;SDS011;59348;52.158;5.588;2023-02-21T05:04:09;103.03;;;48.75;;
22250;SDS011;59348;52.158;5.588;2023-02-21T05:06:37;104.32;;;48.58;;
22250;SDS011;59348;52.158;5.588;2023-02-21T05:09:04;105.63;;;50.00;;
22250;SDS011;59348;52.158;5.588;2023-02-21T05:11:31;102.38;;;48.15;;
22250;SDS011;59348;52.158;5.588;2023-02-21T05:13:59;101.13;;;48.22;;
22250;SDS011;59348;52.158;5.588;2023-02-21T05:16:27;110.40;;;50.53;;
22250;SDS011;59348;52.158;5.588;2023-02-21T05:18:54;103.10;;;48.80;;
22250;SDS011;59348;52.158;5.588;2023-02-21T05:21:22;101.80;;;47.97;;
22250;SDS011;59348;52.158;5.588;2023-02-21T05:23:50;112.28;;;49.92;;
22250;SDS011;59348;52.158;5.588;2023-02-21T05:26:25;105.63;;;49.55;;
22250;SDS011;59348;52.158;5.588;2023-02-21T05:28:55;105.97;;;49.42;;
22250;SDS011;59348;52.158;5.588;2023-02-21T05:31:22;112.28;;;50.00;;
22250;SDS011;59348;52.158;5.588;2023-02-21T05:33:49;106.30;;;50.50;;
22250;SDS011;59348;52.158;5.588;2023-02-21T05:36:16;104.38;;;51.28;;
22250;SDS011;59348;52.158;5.588;2023-02-21T05:38:45;117.60;;;51.35;;
22250;SDS011;59348;52.158;5.588;2023-02-21T05:41:13;117.20;;;51.33;;
22250;SDS011;59348;52.158;5.588;2023-02-21T05:43:41;114.65;;;49.33;;
22250;SDS011;59348;52.158;5.588;2023-02-21T05:46:15;100.93;;;48.67;;
22250;SDS011;59348;52.158;5.588;2023-02-21T05:48:43;111.57;;;50.75;;
22250;SDS011;59348;52.158;5.588;2023-02-21T05:51:10;116.15;;;51.40;;
22250;SDS011;59348;52.158;5.588;2023-02-21T05:53:37;118.18;;;51.05;;
22250;SDS011;59348;52.158;5.588;2023-02-21T05:56:06;111.95;;;50.20;;
22250;SDS011;59348;52.158;5.588;2023-02-21T05:58:33;107.07;;;50.10;;
22250;SDS011;59348;52.158;5.588;2023-02-21T06:01:01;118.00;;;51.20;;
22250;SDS011;59348;52.158;5.588;2023-02-21T06:03:28;115.63;;;51.50;;
22250;SDS011;59348;52.158;5.588;2023-02-21T06:05:55;111.60;;;50.65;;
22250;SDS011;59348;52.158;5.588;2023-02-21T06:08:22;119.35;;;51.00;;
22250;SDS011;59348;52.158;5.588;2023-02-21T06:10:50;126.70;;;52.25;;
22250;SDS011;59348;52.158;5.588;2023-02-21T06:13:18;117.47;;;51.50;;
22250;SDS011;59348;52.158;5.588;2023-02-21T06:15:46;127.90;;;53.97;;
22250;SDS011;59348;52.158;5.588;2023-02-21T06:18:13;127.47;;;52.47;;
22250;SDS011;59348;52.158;5.588;2023-02-21T06:20:40;123.93;;;53.90;;
22250;SDS011;59348;52.158;5.588;2023-02-21T06:23:08;124.35;;;53.42;;
22250;SDS011;59348;52.158;5.588;2023-02-21T06:25:35;126.15;;;53.25;;
22250;SDS011;59348;52.158;5.588;2023-02-21T06:28:02;132.20;;;54.38;;
22250;SDS011;59348;52.158;5.588;2023-02-21T06:30:31;135.05;;;53.47;;
22250;SDS011;59348;52.158;5.588;2023-02-21T06:32:58;125.15;;;52.88;;
22250;SDS011;59348;52.158;5.588;2023-02-21T06:35:26;140.20;;;53.95;;
22250;SDS011;59348;52.158;5.588;2023-02-21T06:37:53;135.80;;;53.72;;
22250;SDS011;59348;52.158;5.588;2023-02-21T06:40:20;137.73;;;53.80;;
22250;SDS011;59348;52.158;5.588;2023-02-21T06:42:47;149.93;;;56.20;;
22250;SDS011;59348;52.158;5.588;2023-02-21T06:45:15;131.85;;;55.88;;
22250;SDS011;59348;52.158;5.588;2023-02-21T06:47:44;140.35;;;54.95;;
22250;SDS011;59348;52.158;5.588;2023-02-21T06:50:11;142.40;;;54.08;;
22250;SDS011;59348;52.158;5.588;2023-02-21T06:52:38;150.00;;;55.83;;
22250;SDS011;59348;52.158;5.588;2023-02-21T06:55:06;147.38;;;55.97;;
22250;SDS011;59348;52.158;5.588;2023-02-21T06:57:33;147.95;;;56.28;;
22250;SDS011;59348;52.158;5.588;2023-02-21T07:00:00;143.77;;;55.20;;
22250;SDS011;59348;52.158;5.588;2023-02-21T07:02:28;146.23;;;56.22;;
22250;SDS011;59348;52.158;5.588;2023-02-21T07:04:56;150.77;;;55.15;;
22250;SDS011;59348;52.158;5.588;2023-02-21T07:07:24;150.48;;;55.28;;
22250;SDS011;59348;52.158;5.588;2023-02-21T07:09:51;151.95;;;56.65;;
22250;SDS011;59348;52.158;5.588;2023-02-21T07:12:18;160.10;;;57.38;;
22250;SDS011;59348;52.158;5.588;2023-02-21T07:14:45;154.43;;;56.65;;
22250;SDS011;59348;52.158;5.588;2023-02-21T07:17:13;148.32;;;55.95;;
22250;SDS011;59348;52.158;5.588;2023-02-21T07:19:40;153.68;;;55.70;;
22250;SDS011;59348;52.158;5.588;2023-02-21T07:22:09;158.05;;;56.70;;
22250;SDS011;59348;52.158;5.588;2023-02-21T07:24:36;154.95;;;57.72;;
22250;SDS011;59348;52.158;5.588;2023-02-21T07:27:03;166.90;;;57.97;;
22250;SDS011;59348;52.158;5.588;2023-02-21T07:29:31;148.00;;;56.13;;
22250;SDS011;59348;52.158;5.588;2023-02-21T07:31:58;156.00;;;57.60;;
22250;SDS011;59348;52.158;5.588;2023-02-21T07:34:25;159.73;;;57.85;;
22250;SDS011;59348;52.158;5.588;2023-02-21T07:36:52;153.77;;;57.08;;
22250;SDS011;59348;52.158;5.588;2023-02-21T07:39:21;160.68;;;57.67;;
22250;SDS011;59348;52.158;5.588;2023-02-21T07:41:48;153.38;;;57.20;;
22250;SDS011;59348;52.158;5.588;2023-02-21T07:44:16;167.02;;;58.40;;
22250;SDS011;59348;52.158;5.588;2023-02-21T07:46:43;162.15;;;57.42;;
22250;SDS011;59348;52.158;5.588;2023-02-21T07:49:10;169.80;;;59.00;;
22250;SDS011;59348;52.158;5.588;2023-02-21T07:51:37;161.63;;;57.20;;
22250;SDS011;59348;52.158;5.588;2023-02-21T07:54:05;181.23;;;60.47;;
22250;SDS011;59348;52.158;5.588;2023-02-21T07:56:34;169.25;;;58.58;;
22250;SDS011;59348;52.158;5.588;2023-02-21T07:59:01;173.57;;;59.70;;
22250;SDS011;59348;52.158;5.588;2023-02-21T08:01:28;190.75;;;60.28;;
22250;SDS011;59348;52.158;5.588;2023-02-21T08:03:55;190.45;;;60.88;;
22250;SDS011;59348;52.158;5.588;2023-02-21T08:06:23;184.95;;;59.25;;
22250;SDS011;59348;52.158;5.588;2023-02-21T08:08:50;179.98;;;61.03;;
22250;SDS011;59348;52.158;5.588;2023-02-21T08:11:17;174.45;;;60.00;;
22250;SDS011;59348;52.158;5.588;2023-02-21T08:13:46;173.13;;;58.67;;
22250;SDS011;59348;52.158;5.588;2023-02-21T08:16:13;177.98;;;58.92;;
22250;SDS011;59348;52.158;5.588;2023-02-21T08:18:41;187.70;;;60.88;;
22250;SDS011;59348;52.158;5.588;2023-02-21T08:34:11;187.07;;;59.55;;
22250;SDS011;59348;52.158;5.588;2023-02-21T08:36:39;187.48;;;58.70;;
22250;SDS011;59348;52.158;5.588;2023-02-21T08:39:07;195.70;;;61.72;;
22250;SDS011;59348;52.158;5.588;2023-02-21T08:46:47;197.98;;;60.70;;
22250;SDS011;59348;52.158;5.588;2023-02-21T08:49:15;190.48;;;58.05;;
22250;SDS011;59348;52.158;5.588;2023-02-21T08:51:42;189.35;;;58.15;;
22250;SDS011;59348;52.158;5.588;2023-02-21T08:54:10;190.27;;;59.83;;
22250;SDS011;59348;52.158;5.588;2023-02-21T08:56:37;190.88;;;58.15;;
22250;SDS011;59348;52.158;5.588;2023-02-21T08:59:05;189.85;;;57.60;;
22250;SDS011;59348;52.158;5.588;2023-02-21T09:01:33;182.65;;;56.45;;
22250;SDS011;59348;52.158;5.588;2023-02-21T09:04:01;180.73;;;57.00;;
22250;SDS011;59348;52.158;5.588;2023-02-21T09:06:30;173.60;;;55.38;;
22250;SDS011;59348;52.158;5.588;2023-02-21T09:08:57;173.27;;;55.53;;
22250;SDS011;59348;52.158;5.588;2023-02-21T09:11:25;165.23;;;55.13;;
22250;SDS011;59348;52.158;5.588;2023-02-21T09:13:52;165.27;;;53.42;;
22250;SDS011;59348;52.158;5.588;2023-02-21T09:16:19;157.50;;;52.50;;
22250;SDS011;59348;52.158;5.588;2023-02-21T09:18:52;160.80;;;54.85;;
22250;SDS011;59348;52.158;5.588;2023-02-21T09:21:19;150.32;;;50.38;;
22250;SDS011;59348;52.158;5.588;2023-02-21T09:23:48;147.68;;;51.50;;
22250;SDS011;59348;52.158;5.588;2023-02-21T09:26:17;143.80;;;50.22;;
22250;SDS011;59348;52.158;5.588;2023-02-21T09:28:46;135.02;;;49.08;;
22250;SDS011;59348;52.158;5.588;2023-02-21T09:31:13;137.00;;;48.42;;
22250;SDS011;59348;52.158;5.588;2023-02-21T09:33:41;118.05;;;46.22;;
22250;SDS011;59348;52.158;5.588;2023-02-21T09:36:08;124.03;;;46.72;;
22250;SDS011;59348;52.158;5.588;2023-02-21T09:38:36;118.47;;;44.72;;
22250;SDS011;59348;52.158;5.588;2023-02-21T09:41:07;122.60;;;45.65;;
22250;SDS011;59348;52.158;5.588;2023-02-21T09:43:35;118.78;;;44.85;;
22250;SDS011;59348;52.158;5.588;2023-02-21T09:46:04;118.53;;;44.83;;
22250;SDS011;59348;52.158;5.588;2023-02-21T09:48:33;117.38;;;44.90;;
22250;SDS011;59348;52.158;5.588;2023-02-21T09:51:01;113.13;;;45.10;;
22250;SDS011;59348;52.158;5.588;2023-02-21T09:53:30;105.43;;;42.28;;
22250;SDS011;59348;52.158;5.588;2023-02-21T09:55:59;109.38;;;43.90;;
22250;SDS011;59348;52.158;5.588;2023-02-21T09:58:29;106.40;;;43.15;;
22250;SDS011;59348;52.158;5.588;2023-02-21T10:00:57;108.88;;;42.85;;
22250;SDS011;59348;52.158;5.588;2023-02-21T10:03:27;100.93;;;40.75;;
22250;SDS011;59348;52.158;5.588;2023-02-21T10:05:59;100.50;;;40.47;;
22250;SDS011;59348;52.158;5.588;2023-02-21T10:08:30;96.35;;;39.60;;
22250;SDS011;59348;52.158;5.588;2023-02-21T10:11:04;95.05;;;39.50;;
22250;SDS011;59348;52.158;5.588;2023-02-21T10:13:37;86.93;;;37.17;;
22250;SDS011;59348;52.158;5.588;2023-02-21T10:16:07;95.28;;;38.88;;
22250;SDS011;59348;52.158;5.588;2023-02-21T10:18:39;90.03;;;39.05;;
22250;SDS011;59348;52.158;5.588;2023-02-21T10:21:11;87.97;;;38.15;;
22250;SDS011;59348;52.158;5.588;2023-02-21T10:23:39;90.50;;;38.10;;
22250;SDS011;59348;52.158;5.588;2023-02-21T10:26:09;87.95;;;37.08;;
22250;SDS011;59348;52.158;5.588;2023-02-21T10:28:38;85.35;;;37.85;;
22250;SDS011;59348;52.158;5.588;2023-02-21T10:31:07;90.25;;;38.53;;
22250;SDS011;59348;52.158;5.588;2023-02-21T10:33:35;92.72;;;39.63;;
22250;SDS011;59348;52.158;5.588;2023-02-21T10:36:08;89.03;;;38.58;;
22250;SDS011;59348;52.158;5.588;2023-02-21T10:38:36;96.93;;;40.53;;
22250;SDS011;59348;52.158;5.588;2023-02-21T10:41:06;83.80;;;38.45;;
22250;SDS011;59348;52.158;5.588;2023-02-21T10:43:34;81.68;;;38.00;;
22250;SDS011;59348;52.158;5.588;2023-02-21T10:46:04;87.45;;;38.30;;
22250;SDS011;59348;52.158;5.588;2023-02-21T10:48:35;94.93;;;40.35;;
22250;SDS011;59348;52.158;5.588;2023-02-21T10:51:04;91.55;;;40.13;;
22250;SDS011;59348;52.158;5.588;2023-02-21T10:53:33;93.05;;;40.78;;
22250;SDS011;59348;52.158;5.588;2023-02-21T10:56:11;92.80;;;40.55;;
22250;SDS011;59348;52.158;5.588;2023-02-21T10:58:43;87.60;;;39.80;;
22250;SDS011;59348;52.158;5.588;2023-02-21T11:01:13;92.75;;;39.70;;
22250;SDS011;59348;52.158;5.588;2023-02-21T11:03:42;91.22;;;39.08;;
22250;SDS011;59348;52.158;5.588;2023-02-21T11:06:09;91.03;;;41.22;;
22250;SDS011;59348;52.158;5.588;2023-02-21T11:08:47;94.88;;;38.83;;
22250;SDS011;59348;52.158;5.588;2023-02-21T11:11:14;96.32;;;41.65;;
22250;SDS011;59348;52.158;5.588;2023-02-21T11:13:41;94.28;;;42.20;;
22250;SDS011;59348;52.158;5.588;2023-02-21T11:16:10;91.60;;;38.90;;
22250;SDS011;59348;52.158;5.588;2023-02-21T11:18:39;94.45;;;41.10;;
22250;SDS011;59348;52.158;5.588;2023-02-21T11:21:10;96.93;;;40.28;;
22250;SDS011;59348;52.158;5.588;2023-02-21T11:23:42;84.70;;;37.80;;
22250;SDS011;59348;52.158;5.588;2023-02-21T11:26:10;99.00;;;40.60;;
22250;SDS011;59348;52.158;5.588;2023-02-21T11:28:38;96.10;;;39.60;;
22250;SDS011;59348;52.158;5.588;2023-02-21T11:31:12;94.70;;;39.17;;
22250;SDS011;59348;52.158;5.588;2023-02-21T11:33:43;91.63;;;39.90;;
22250;SDS011;59348;52.158;5.588;2023-02-21T11:36:15;100.65;;;40.60;;
22250;SDS011;59348;52.158;5.588;2023-02-21T11:38:44;90.97;;;39.50;;
22250;SDS011;59348;52.158;5.588;2023-02-21T11:41:26;82.47;;;39.50;;
22250;SDS011;59348;52.158;5.588;2023-02-21T11:43:55;98.45;;;40.17;;
22250;SDS011;59348;52.158;5.588;2023-02-21T11:46:30;97.60;;;40.70;;
22250;SDS011;59348;52.158;5.588;2023-02-21T11:49:01;93.28;;;39.42;;
22250;SDS011;59348;52.158;5.588;2023-02-21T11:51:32;100.22;;;42.10;;
22250;SDS011;59348;52.158;5.588;2023-02-21T11:54:00;100.72;;;41.47;;
22250;SDS011;59348;52.158;5.588;2023-02-21T11:56:38;88.45;;;40.13;;
22250;SDS011;59348;52.158;5.588;2023-02-21T11:59:11;95.55;;;42.13;;
22250;SDS011;59348;52.158;5.588;2023-02-21T12:01:45;95.35;;;41.38;;
22250;SDS011;59348;52.158;5.588;2023-02-21T12:04:20;96.80;;;42.17;;
22250;SDS011;59348;52.158;5.588;2023-02-21T12:06:51;102.03;;;42.05;;
22250;SDS011;59348;52.158;5.588;2023-02-21T12:09:22;106.13;;;42.83;;
22250;SDS011;59348;52.158;5.588;2023-02-21T12:11:55;102.25;;;44.00;;
22250;SDS011;59348;52.158;5.588;2023-02-21T12:14:36;103.90;;;43.33;;
22250;SDS011;59348;52.158;5.588;2023-02-21T12:17:10;108.93;;;45.10;;
22250;SDS011;59348;52.158;5.588;2023-02-21T12:19:48;105.30;;;44.95;;
22250;SDS011;59348;52.158;5.588;2023-02-21T12:22:22;112.55;;;44.55;;
22250;SDS011;59348;52.158;5.588;2023-02-21T12:24:57;109.78;;;43.15;;
22250;SDS011;59348;52.158;5.588;2023-02-21T12:27:31;105.72;;;43.92;;
22250;SDS011;59348;52.158;5.588;2023-02-21T12:30:03;100.10;;;41.70;;
22250;SDS011;59348;52.158;5.588;2023-02-21T12:32:37;106.25;;;43.35;;
22250;SDS011;59348;52.158;5.588;2023-02-21T12:35:14;108.40;;;41.92;;
22250;SDS011;59348;52.158;5.588;2023-02-21T12:37:48;100.63;;;41.25;;
22250;SDS011;59348;52.158;5.588;2023-02-21T12:40:24;105.97;;;42.75;;
22250;SDS011;59348;52.158;5.588;2023-02-21T12:43:01;107.25;;;42.75;;
22250;SDS011;59348;52.158;5.588;2023-02-21T12:45:36;103.68;;;42.33;;
22250;SDS011;59348;52.158;5.588;2023-02-21T12:48:06;101.22;;;40.53;;
22250;SDS011;59348;52.158;5.588;2023-02-21T12:50:39;103.32;;;41.53;;
22250;SDS011;59348;52.158;5.588;2023-02-21T12:53:09;99.85;;;39.72;;
22250;SDS011;59348;52.158;5.588;2023-02-21T12:55:38;100.30;;;39.85;;
22250;SDS011;59348;52.158;5.588;2023-02-21T12:58:09;92.55;;;37.80;;
22250;SDS011;59348;52.158;5.588;2023-02-21T13:00:39;85.97;;;35.97;;
22250;SDS011;59348;52.158;5.588;2023-02-21T13:03:10;83.22;;;36.78;;
22250;SDS011;59348;52.158;5.588;2023-02-21T13:05:43;82.97;;;35.95;;
22250;SDS011;59348;52.158;5.588;2023-02-21T13:08:14;82.25;;;34.50;;
22250;SDS011;59348;52.158;5.588;2023-02-21T13:10:48;82.57;;;35.30;;
22250;SDS011;59348;52.158;5.588;2023-02-21T13:13:18;78.25;;;32.90;;
22250;SDS011;59348;52.158;5.588;2023-02-21T13:15:46;74.50;;;33.33;;
22250;SDS011;59348;52.158;5.588;2023-02-21T13:18:18;82.20;;;32.20;;
22250;SDS011;59348;52.158;5.588;2023-02-21T13:20:51;69.43;;;29.00;;
22250;SDS011;59348;52.158;5.588;2023-02-21T13:23:19;68.28;;;28.42;;
22250;SDS011;59348;52.158;5.588;2023-02-21T13:25:50;58.85;;;26.20;;
22250;SDS011;59348;52.158;5.588;2023-02-21T13:28:20;53.35;;;24.30;;
22250;SDS011;59348;52.158;5.588;2023-02-21T13:30:49;47.67;;;22.45;;
22250;SDS011;59348;52.158;5.588;2023-02-21T13:33:25;50.67;;;22.85;;
22250;SDS011;59348;52.158;5.588;2023-02-21T13:35:56;47.90;;;21.70;;
22250;SDS011;59348;52.158;5.588;2023-02-21T13:38:24;47.03;;;21.58;;
22250;SDS011;59348;52.158;5.588;2023-02-21T13:40:52;43.85;;;21.35;;
22250;SDS011;59348;52.158;5.588;2023-02-21T13:43:21;40.50;;;19.77;;
22250;SDS011;59348;52.158;5.588;2023-02-21T13:45:49;40.30;;;20.08;;
22250;SDS011;59348;52.158;5.588;2023-02-21T13:48:20;43.63;;;19.55;;
22250;SDS011;59348;52.158;5.588;2023-02-21T13:50:48;41.42;;;19.15;;
22250;SDS011;59348;52.158;5.588;2023-02-21T13:53:17;38.63;;;19.55;;
22250;SDS011;59348;52.158;5.588;2023-02-21T13:58:29;41.42;;;18.45;;
22250;SDS011;59348;52.158;5.588;2023-02-21T14:01:12;34.28;;;16.98;;
22250;SDS011;59348;52.158;5.588;2023-02-21T14:03:40;36.25;;;17.15;;
22250;SDS011;59348;52.158;5.588;2023-02-21T14:06:18;33.25;;;16.75;;
22250;SDS011;59348;52.158;5.588;2023-02-21T14:08:52;30.55;;;16.17;;
22250;SDS011;59348;52.158;5.588;2023-02-21T14:11:23;35.55;;;16.77;;
22250;SDS011;59348;52.158;5.588;2023-02-21T14:13:53;29.35;;;16.02;;
22250;SDS011;59348;52.158;5.588;2023-02-21T14:16:22;30.67;;;15.13;;
22250;SDS011;59348;52.158;5.588;2023-02-21T14:18:51;28.23;;;14.38;;
22250;SDS011;59348;52.158;5.588;2023-02-21T14:21:21;29.02;;;14.27;;
22250;SDS011;59348;52.158;5.588;2023-02-21T14:23:58;23.45;;;14.00;;
22250;SDS011;59348;52.158;5.588;2023-02-21T14:26:34;25.90;;;14.07;;
22250;SDS011;59348;52.158;5.588;2023-02-21T14:29:11;24.83;;;14.30;;
22250;SDS011;59348;52.158;5.588;2023-02-21T14:31:47;29.08;;;14.30;;
22250;SDS011;59348;52.158;5.588;2023-02-21T14:34:16;28.27;;;15.40;;
22250;SDS011;59348;52.158;5.588;2023-02-21T14:36:47;27.33;;;14.45;;
22250;SDS011;59348;52.158;5.588;2023-02-21T14:39:17;26.38;;;14.75;;
22250;SDS011;59348;52.158;5.588;2023-02-21T14:41:58;25.15;;;14.35;;
22250;SDS011;59348;52.158;5.588;2023-02-21T14:44:29;26.83;;;15.38;;
22250;SDS011;59348;52.158;5.588;2023-02-21T14:47:06;28.13;;;15.65;;
22250;SDS011;59348;52.158;5.588;2023-02-21T14:49:42;28.77;;;15.07;;
22250;SDS011;59348;52.158;5.588;2023-02-21T14:52:18;30.30;;;15.93;;
22250;SDS011;59348;52.158;5.588;2023-02-21T14:54:55;32.28;;;17.40;;
22250;SDS011;59348;52.158;5.588;2023-02-21T15:00:12;33.50;;;18.10;;
22250;SDS011;59348;52.158;5.588;2023-02-21T15:02:46;36.40;;;18.95;;
22250;SDS011;59348;52.158;5.588;2023-02-21T15:05:16;39.53;;;19.25;;